createdAt,value
2022-09-12T00:04:05.970Z,8.50
2022-09-12T00:09:12.612Z,8.30
2022-09-12T00:14:18.305Z,8.10
2022-09-12T00:19:20.920Z,8.00
2022-09-12T00:24:23.797Z,8.00
2022-09-12T00:29:26.228Z,8.00
2022-09-12T00:34:28.783Z,8.00
2022-09-12T00:39:31.338Z,7.90
2022-09-12T00:44:42.267Z,7.80
2022-09-12T00:50:03.092Z,7.70
2022-09-12T00:55:31.894Z,7.80
2022-09-12T01:00:34.590Z,7.80
2022-09-12T01:05:44.190Z,7.80
2022-09-12T01:10:46.771Z,7.70
2022-09-12T01:15:49.604Z,7.70
2022-09-12T01:21:00.175Z,7.80
2022-09-12T01:26:37.770Z,7.60
2022-09-12T01:32:02.176Z,7.70
2022-09-12T01:37:19.853Z,7.50
2022-09-12T01:42:33.728Z,7.50
2022-09-12T01:47:45.051Z,7.50
2022-09-12T01:52:52.325Z,7.60
2022-09-12T01:58:05.372Z,7.80
2022-09-12T02:03:16.751Z,7.80
2022-09-12T02:08:29.939Z,7.70
2022-09-12T02:13:44.023Z,7.70
2022-09-12T02:18:52.623Z,7.70
2022-09-12T02:23:59.532Z,7.70
2022-09-12T02:29:04.037Z,7.70
2022-09-12T02:34:21.222Z,7.70
2022-09-12T02:39:23.626Z,7.70
2022-09-12T02:44:28.030Z,7.70
2022-09-12T02:49:30.801Z,7.90
2022-09-12T02:54:33.725Z,7.80
2022-09-12T02:59:36.123Z,7.70
2022-09-12T03:04:47.865Z,7.80
2022-09-12T03:09:53.257Z,7.80
2022-09-12T03:15:07.920Z,7.80
2022-09-12T03:20:37.889Z,7.80
2022-09-12T03:26:06.078Z,7.80
2022-09-12T03:31:16.532Z,7.70
2022-09-12T03:36:27.847Z,7.70
2022-09-12T03:41:30.306Z,7.60
2022-09-12T03:46:32.901Z,7.50
2022-09-12T03:51:35.353Z,7.50
2022-09-12T03:56:38.185Z,7.60
2022-09-12T04:01:41.965Z,7.60
2022-09-12T04:06:44.396Z,7.70
2022-09-12T04:11:46.996Z,7.90
2022-09-12T04:16:49.767Z,7.80
2022-09-12T04:21:52.215Z,7.90
2022-09-12T04:26:54.958Z,8.00
2022-09-12T04:31:57.535Z,8.00
2022-09-12T04:37:00.061Z,8.00
2022-09-12T04:42:04.740Z,8.20
2022-09-12T04:47:07.842Z,8.30
2022-09-12T04:52:10.423Z,8.50
2022-09-12T04:57:13.431Z,8.60
2022-09-12T05:02:16.402Z,8.90
2022-09-12T05:07:21.895Z,9.00
2022-09-12T05:12:24.812Z,9.20
2022-09-12T05:17:29.678Z,9.30
2022-09-12T05:22:32.330Z,9.40
2022-09-12T05:27:34.925Z,9.40
2022-09-12T05:32:37.366Z,9.30
2022-09-12T05:37:40.200Z,9.30
2022-09-12T05:42:42.647Z,9.50
2022-09-12T05:47:47.400Z,9.70
2022-09-12T05:52:50.607Z,9.70
2022-09-12T05:57:54.150Z,9.80
2022-09-12T06:02:56.724Z,9.90
2022-09-12T06:07:59.232Z,10.20
2022-09-12T06:13:02.362Z,10.30
2022-09-12T06:18:04.871Z,10.60
2022-09-12T06:23:07.460Z,11.00
2022-09-12T06:28:09.847Z,11.40
2022-09-12T06:33:12.413Z,11.60
2022-09-12T06:38:16.026Z,11.80
2022-09-12T06:43:20.011Z,12.10
2022-09-12T06:48:24.023Z,12.80
2022-09-12T06:53:27.801Z,13.00
2022-09-12T06:58:31.491Z,13.10
2022-09-12T07:03:35.073Z,13.30
2022-09-12T07:08:38.770Z,13.50
2022-09-12T07:13:42.899Z,13.40
2022-09-12T07:18:49.463Z,13.60
2022-09-12T07:23:52.868Z,14.10
2022-09-12T07:29:08.259Z,14.10
2022-09-12T07:34:15.521Z,14.20
2022-09-12T07:39:18.100Z,14.10
2022-09-12T07:44:22.054Z,14.20
2022-09-12T07:49:24.709Z,13.90
2022-09-12T07:54:27.752Z,13.90
2022-09-12T07:59:51.339Z,14.10
2022-09-12T08:04:53.693Z,14.20
2022-09-12T08:09:56.879Z,14.80
2022-09-12T08:14:59.319Z,15.10
2022-09-12T08:20:02.762Z,15.30
2022-09-12T08:25:05.648Z,15.10
2022-09-12T08:30:08.506Z,15.00
2022-09-12T08:35:13.389Z,15.50
2022-09-12T08:40:17.121Z,15.20
2022-09-12T08:45:32.939Z,15.50
2022-09-12T08:50:36.302Z,15.90
2022-09-12T08:55:43.899Z,15.60
2022-09-12T09:01:05.460Z,15.70
2022-09-12T09:06:31.878Z,16.00
2022-09-12T09:11:58.533Z,16.20
2022-09-12T09:17:02.117Z,15.50
2022-09-12T09:22:22.868Z,15.60
2022-09-12T09:27:57.659Z,16.20
2022-09-12T09:33:05.265Z,16.00
2022-09-12T09:38:24.472Z,16.00
2022-09-12T09:43:29.061Z,16.40
2022-09-12T09:48:34.898Z,16.40
2022-09-12T09:54:06.364Z,16.00
2022-09-12T09:59:29.827Z,16.10
2022-09-12T10:04:40.596Z,16.30
2022-09-12T10:10:06.426Z,16.20
2022-09-12T10:15:20.502Z,16.50
2022-09-12T10:20:39.617Z,16.40
2022-09-12T10:25:47.835Z,16.10
2022-09-12T10:30:55.034Z,16.60
2022-09-12T10:35:58.087Z,16.70
2022-09-12T10:41:11.785Z,16.30
2022-09-12T10:46:22.886Z,16.90
2022-09-12T10:51:25.403Z,17.20
2022-09-12T10:56:36.307Z,17.00
2022-09-12T11:01:45.304Z,17.40
2022-09-12T11:07:23.634Z,17.40
2022-09-12T11:12:35.030Z,17.70
2022-09-12T11:17:43.446Z,17.40
2022-09-12T11:22:54.763Z,17.20
2022-09-12T11:28:32.717Z,16.80
2022-09-12T11:33:36.870Z,16.50
2022-09-12T11:39:15.968Z,16.90
2022-09-12T11:44:18.806Z,16.50
2022-09-12T11:49:47.657Z,16.70
2022-09-12T11:54:55.473Z,16.60
2022-09-12T12:00:10.473Z,17.00
2022-09-12T12:05:36.076Z,17.60
2022-09-12T12:10:44.302Z,17.50
2022-09-12T12:15:55.147Z,17.90
2022-09-12T12:21:29.656Z,18.00
2022-09-12T12:26:41.179Z,17.80
2022-09-12T12:32:04.918Z,17.70
2022-09-12T12:37:20.155Z,17.70
2022-09-12T12:42:36.874Z,18.10
2022-09-12T12:47:47.026Z,18.20
2022-09-12T12:53:05.032Z,18.00
2022-09-12T12:58:24.423Z,17.70
2022-09-12T13:03:30.637Z,17.70
2022-09-12T13:08:36.905Z,17.80
2022-09-12T13:13:45.327Z,18.00
2022-09-12T13:18:49.975Z,18.20
2022-09-12T13:24:04.197Z,18.20
2022-09-12T13:29:18.431Z,17.70
2022-09-12T13:34:24.825Z,17.60
2022-09-12T13:39:36.023Z,17.10
2022-09-12T13:45:15.448Z,16.70
2022-09-12T13:50:26.353Z,16.40
2022-09-12T13:55:34.394Z,16.40
2022-09-12T14:00:37.984Z,16.30
2022-09-12T14:05:44.640Z,16.10
2022-09-12T14:10:50.438Z,16.30
2022-09-12T14:15:55.873Z,16.80
2022-09-12T14:21:10.558Z,16.70
2022-09-12T14:26:15.432Z,16.60
2022-09-12T14:31:24.688Z,16.60
2022-09-12T14:36:32.221Z,17.00
2022-09-12T14:41:40.719Z,17.20
2022-09-12T14:46:44.428Z,17.30
2022-09-12T14:51:56.767Z,17.10
2022-09-12T14:57:07.226Z,17.10
2022-09-12T15:02:24.727Z,16.90
2022-09-12T15:07:36.378Z,16.70
2022-09-12T15:12:38.876Z,16.60
2022-09-12T15:17:42.037Z,16.40
2022-09-12T15:22:44.490Z,16.50
2022-09-12T15:27:47.878Z,16.40
2022-09-12T15:32:50.497Z,16.30
2022-09-12T15:37:52.980Z,16.30
2022-09-12T15:42:55.389Z,16.20
2022-09-12T15:48:00.205Z,16.10
2022-09-12T15:53:03.066Z,16.00
2022-09-12T15:58:07.396Z,15.90
2022-09-12T16:03:22.931Z,15.90
2022-09-12T16:08:25.909Z,15.60
2022-09-12T16:13:28.615Z,15.70
2022-09-12T16:18:31.113Z,15.40
2022-09-12T16:23:33.708Z,15.20
2022-09-12T16:28:36.372Z,14.90
2022-09-12T16:33:40.288Z,14.70
2022-09-12T16:38:48.243Z,14.30
2022-09-12T16:43:51.108Z,13.90
2022-09-12T16:48:56.421Z,13.50
2022-09-12T16:53:59.286Z,12.80
2022-09-12T16:59:01.755Z,12.40
2022-09-12T17:04:04.606Z,11.90
2022-09-12T17:09:07.152Z,11.70
2022-09-12T17:14:11.009Z,11.70
2022-09-12T17:19:20.981Z,11.30
2022-09-12T17:24:24.301Z,11.00
2022-09-12T17:29:27.582Z,10.60
2022-09-12T17:34:30.483Z,10.30
2022-09-12T17:39:33.526Z,10.00
2022-09-12T17:44:36.686Z,9.70
2022-09-12T17:49:50.129Z,9.60
2022-09-12T17:54:52.859Z,9.40
2022-09-12T17:59:55.653Z,9.20
2022-09-12T18:04:59.383Z,9.10
2022-09-12T18:10:02.793Z,9.10
2022-09-12T18:15:07.254Z,8.90
2022-09-12T18:20:10.234Z,8.70
2022-09-12T18:25:13.077Z,8.60
2022-09-12T18:30:22.076Z,8.50
2022-09-12T18:35:26.685Z,8.40
2022-09-12T18:40:29.593Z,8.40
2022-09-12T18:45:32.321Z,8.10
2022-09-12T18:50:35.248Z,8.20
2022-09-12T18:55:37.928Z,8.10
2022-09-12T19:00:41.752Z,8.10
2022-09-12T19:05:46.220Z,8.00
2022-09-12T19:10:55.759Z,7.90
2022-09-12T19:16:01.407Z,7.80
2022-09-12T19:21:05.118Z,7.80
2022-09-12T19:26:11.006Z,7.80
2022-09-12T19:31:16.687Z,7.70
2022-09-12T19:36:43.773Z,7.70
2022-09-12T19:41:44.812Z,7.50
2022-09-12T19:46:47.700Z,7.40
2022-09-12T19:51:50.607Z,7.50
2022-09-12T19:56:53.103Z,7.40
2022-09-12T20:01:55.715Z,7.30
2022-09-12T20:06:58.285Z,7.30
2022-09-12T20:12:00.736Z,7.20
2022-09-12T20:17:03.102Z,7.20
2022-09-12T20:22:05.558Z,7.20
2022-09-12T20:27:08.067Z,7.10
2022-09-12T20:32:10.554Z,6.90
2022-09-12T20:37:12.933Z,7.00
2022-09-12T20:42:15.289Z,6.80
2022-09-12T20:47:17.691Z,7.00
2022-09-12T20:52:20.139Z,7.10
2022-09-12T20:57:23.264Z,7.00
2022-09-12T21:02:25.953Z,7.00
2022-09-12T21:07:28.644Z,7.00
2022-09-12T21:12:30.935Z,6.90
2022-09-12T21:17:33.375Z,6.80
2022-09-12T21:22:35.914Z,6.60
2022-09-12T21:27:38.177Z,6.50
2022-09-12T21:32:40.819Z,6.60
2022-09-12T21:37:43.121Z,9.90
2022-09-12T21:42:45.412Z,6.50
2022-09-12T21:47:47.958Z,8.80
2022-09-12T21:52:50.292Z,6.40
2022-09-12T21:57:53.574Z,6.50
2022-09-12T22:02:56.255Z,6.20
2022-09-12T22:08:00.650Z,6.30
2022-09-12T22:13:03.240Z,6.20
2022-09-12T22:18:07.370Z,6.30
2022-09-12T22:23:31.579Z,6.00
2022-09-12T22:28:35.567Z,5.80
2022-09-12T22:33:37.980Z,5.80
2022-09-12T22:38:40.614Z,5.80
2022-09-12T22:43:42.997Z,7.10
2022-09-12T22:48:45.704Z,6.00
2022-09-12T22:53:48.075Z,5.90
2022-09-12T22:58:51.040Z,5.90
2022-09-12T23:03:53.970Z,9.10
2022-09-12T23:08:56.393Z,6.10
2022-09-12T23:13:58.902Z,6.00
2022-09-12T23:19:01.342Z,5.80
2022-09-12T23:24:04.223Z,5.60
2022-09-12T23:29:06.787Z,5.80
2022-09-12T23:34:10.208Z,8.40
2022-09-12T23:39:13.628Z,5.80
2022-09-12T23:44:15.908Z,5.40
2022-09-12T23:49:18.214Z,5.30
2022-09-12T23:54:20.482Z,5.40
2022-09-12T23:59:22.729Z,5.40
